sensor_id;sensor_type;location;lat;lon;timestamp;temperature;humidity
26505;DHT22;19493;48.042;7.584;2022-09-09T00:07:43;16.40;99.90
26505;DHT22;19493;48.042;7.584;2022-09-09T00:10:38;16.20;99.90
26505;DHT22;19493;48.042;7.584;2022-09-09T00:13:16;16.10;99.90
26505;DHT22;19493;48.042;7.584;2022-09-09T00:16:08;15.90;99.90
26505;DHT22;19493;48.042;7.584;2022-09-09T00:19:04;15.80;99.90
26505;DHT22;19493;48.042;7.584;2022-09-09T00:21:39;15.70;99.90
26505;DHT22;19493;48.042;7.584;2022-09-09T00:24:32;15.60;99.90
26505;DHT22;19493;48.042;7.584;2022-09-09T00:32:40;15.40;99.90
26505;DHT22;19493;48.042;7.584;2022-09-09T00:35:27;15.40;99.90
26505;DHT22;19493;48.042;7.584;2022-09-09T00:37:57;15.30;99.90
26505;DHT22;19493;48.042;7.584;2022-09-09T00:40:32;15.20;99.90
26505;DHT22;19493;48.042;7.584;2022-09-09T00:48:44;15.10;99.90
26505;DHT22;19493;48.042;7.584;2022-09-09T00:51:23;15.00;99.90
26505;DHT22;19493;48.042;7.584;2022-09-09T00:56:37;15.10;99.90
26505;DHT22;19493;48.042;7.584;2022-09-09T01:01:36;15.10;99.90
26505;DHT22;19493;48.042;7.584;2022-09-09T01:04:07;15.20;99.90
26505;DHT22;19493;48.042;7.584;2022-09-09T01:06:36;15.30;99.90
26505;DHT22;19493;48.042;7.584;2022-09-09T01:09:23;15.40;99.90
26505;DHT22;19493;48.042;7.584;2022-09-09T01:12:03;15.50;99.90
26505;DHT22;19493;48.042;7.584;2022-09-09T01:17:15;15.50;99.90
26505;DHT22;19493;48.042;7.584;2022-09-09T01:22:35;15.60;99.90
26505;DHT22;19493;48.042;7.584;2022-09-09T01:25:09;15.50;99.90
26505;DHT22;19493;48.042;7.584;2022-09-09T01:27:37;15.50;99.90
26505;DHT22;19493;48.042;7.584;2022-09-09T01:30:10;15.50;99.90
26505;DHT22;19493;48.042;7.584;2022-09-09T01:32:43;15.50;99.90
26505;DHT22;19493;48.042;7.584;2022-09-09T01:38:05;15.40;99.90
26505;DHT22;19493;48.042;7.584;2022-09-09T01:40:31;15.50;99.90
26505;DHT22;19493;48.042;7.584;2022-09-09T01:42:58;15.50;99.90
26505;DHT22;19493;48.042;7.584;2022-09-09T01:45:24;15.60;99.90
26505;DHT22;19493;48.042;7.584;2022-09-09T01:47:51;15.70;99.90
26505;DHT22;19493;48.042;7.584;2022-09-09T01:50:17;15.70;99.90
26505;DHT22;19493;48.042;7.584;2022-09-09T01:52:45;15.70;99.90
26505;DHT22;19493;48.042;7.584;2022-09-09T01:55:14;15.80;99.90
26505;DHT22;19493;48.042;7.584;2022-09-09T01:58:02;15.80;99.90
26505;DHT22;19493;48.042;7.584;2022-09-09T02:00:34;15.80;99.90
26505;DHT22;19493;48.042;7.584;2022-09-09T02:03:11;15.80;99.90
26505;DHT22;19493;48.042;7.584;2022-09-09T02:06:13;15.80;99.90
26505;DHT22;19493;48.042;7.584;2022-09-09T02:08:46;15.70;99.90
26505;DHT22;19493;48.042;7.584;2022-09-09T02:11:21;15.70;99.90
26505;DHT22;19493;48.042;7.584;2022-09-09T02:13:49;15.70;99.90
26505;DHT22;19493;48.042;7.584;2022-09-09T02:19:15;15.80;99.90
26505;DHT22;19493;48.042;7.584;2022-09-09T02:21:45;15.70;99.90
26505;DHT22;19493;48.042;7.584;2022-09-09T02:24:13;15.70;99.90
26505;DHT22;19493;48.042;7.584;2022-09-09T02:26:41;15.70;99.90
26505;DHT22;19493;48.042;7.584;2022-09-09T02:29:19;15.60;99.90
26505;DHT22;19493;48.042;7.584;2022-09-09T02:31:46;15.60;99.90
26505;DHT22;19493;48.042;7.584;2022-09-09T02:34:13;15.60;99.90
26505;DHT22;19493;48.042;7.584;2022-09-09T02:36:43;15.50;99.90
26505;DHT22;19493;48.042;7.584;2022-09-09T02:39:10;15.50;99.90
26505;DHT22;19493;48.042;7.584;2022-09-09T02:41:41;15.60;99.90
26505;DHT22;19493;48.042;7.584;2022-09-09T02:44:14;15.70;99.90
26505;DHT22;19493;48.042;7.584;2022-09-09T02:47:14;15.70;99.90
26505;DHT22;19493;48.042;7.584;2022-09-09T02:50:24;15.70;99.90
26505;DHT22;19493;48.042;7.584;2022-09-09T02:52:36;15.60;99.90
26505;DHT22;19493;48.042;7.584;2022-09-09T02:55:09;15.60;99.90
26505;DHT22;19493;48.042;7.584;2022-09-09T02:57:37;15.60;99.90
26505;DHT22;19493;48.042;7.584;2022-09-09T03:00:04;15.60;99.90
26505;DHT22;19493;48.042;7.584;2022-09-09T03:02:30;15.60;99.90
26505;DHT22;19493;48.042;7.584;2022-09-09T03:04:56;15.50;99.90
26505;DHT22;19493;48.042;7.584;2022-09-09T03:07:22;15.40;99.90
26505;DHT22;19493;48.042;7.584;2022-09-09T03:09:47;15.30;99.90
26505;DHT22;19493;48.042;7.584;2022-09-09T03:12:13;15.20;99.90
26505;DHT22;19493;48.042;7.584;2022-09-09T03:14:39;15.10;99.90
26505;DHT22;19493;48.042;7.584;2022-09-09T03:17:05;14.90;99.90
26505;DHT22;19493;48.042;7.584;2022-09-09T03:19:31;14.80;99.90
26505;DHT22;19493;48.042;7.584;2022-09-09T03:21:57;14.70;99.90
26505;DHT22;19493;48.042;7.584;2022-09-09T03:24:24;14.70;99.90
26505;DHT22;19493;48.042;7.584;2022-09-09T03:26:49;14.60;99.90
26505;DHT22;19493;48.042;7.584;2022-09-09T03:29:16;14.60;99.90
26505;DHT22;19493;48.042;7.584;2022-09-09T03:31:43;14.60;99.90
26505;DHT22;19493;48.042;7.584;2022-09-09T03:34:08;14.60;99.90
26505;DHT22;19493;48.042;7.584;2022-09-09T03:36:34;14.60;99.90
26505;DHT22;19493;48.042;7.584;2022-09-09T03:38:59;14.60;99.90
26505;DHT22;19493;48.042;7.584;2022-09-09T03:41:26;14.70;99.90
26505;DHT22;19493;48.042;7.584;2022-09-09T03:43:51;14.70;99.90
26505;DHT22;19493;48.042;7.584;2022-09-09T03:46:22;14.70;99.90
26505;DHT22;19493;48.042;7.584;2022-09-09T03:48:48;14.80;99.90
26505;DHT22;19493;48.042;7.584;2022-09-09T03:51:14;14.70;99.90
26505;DHT22;19493;48.042;7.584;2022-09-09T03:53:41;14.70;99.90
26505;DHT22;19493;48.042;7.584;2022-09-09T03:56:07;14.60;99.90
26505;DHT22;19493;48.042;7.584;2022-09-09T03:58:34;14.50;99.90
26505;DHT22;19493;48.042;7.584;2022-09-09T04:01:03;14.50;99.90
26505;DHT22;19493;48.042;7.584;2022-09-09T04:03:29;14.50;99.90
26505;DHT22;19493;48.042;7.584;2022-09-09T04:05:58;14.50;99.90
26505;DHT22;19493;48.042;7.584;2022-09-09T04:08:24;14.50;99.90
26505;DHT22;19493;48.042;7.584;2022-09-09T04:10:53;14.60;99.90
26505;DHT22;19493;48.042;7.584;2022-09-09T04:13:20;14.60;99.90
26505;DHT22;19493;48.042;7.584;2022-09-09T04:15:56;14.70;99.90
26505;DHT22;19493;48.042;7.584;2022-09-09T04:18:22;14.70;99.90
26505;DHT22;19493;48.042;7.584;2022-09-09T04:20:50;14.80;99.90
26505;DHT22;19493;48.042;7.584;2022-09-09T04:23:17;14.70;99.90
26505;DHT22;19493;48.042;7.584;2022-09-09T04:25:45;14.70;99.90
26505;DHT22;19493;48.042;7.584;2022-09-09T04:28:12;14.80;99.90
26505;DHT22;19493;48.042;7.584;2022-09-09T04:30:38;14.80;99.90
26505;DHT22;19493;48.042;7.584;2022-09-09T04:33:05;14.80;99.90
26505;DHT22;19493;48.042;7.584;2022-09-09T04:35:31;14.90;99.90
26505;DHT22;19493;48.042;7.584;2022-09-09T04:37:57;14.90;99.90
26505;DHT22;19493;48.042;7.584;2022-09-09T04:40:22;15.00;99.90
26505;DHT22;19493;48.042;7.584;2022-09-09T04:42:48;15.00;99.90
26505;DHT22;19493;48.042;7.584;2022-09-09T04:45:15;15.00;99.90
26505;DHT22;19493;48.042;7.584;2022-09-09T04:47:41;15.00;99.90
26505;DHT22;19493;48.042;7.584;2022-09-09T04:50:07;15.00;99.90
26505;DHT22;19493;48.042;7.584;2022-09-09T04:52:36;14.90;99.90
26505;DHT22;19493;48.042;7.584;2022-09-09T04:55:03;14.90;99.90
26505;DHT22;19493;48.042;7.584;2022-09-09T04:57:29;14.80;99.90
26505;DHT22;19493;48.042;7.584;2022-09-09T04:59:57;14.80;99.90
26505;DHT22;19493;48.042;7.584;2022-09-09T05:02:23;14.80;99.90
26505;DHT22;19493;48.042;7.584;2022-09-09T05:04:48;14.80;99.90
26505;DHT22;19493;48.042;7.584;2022-09-09T05:07:15;14.80;99.90
26505;DHT22;19493;48.042;7.584;2022-09-09T05:09:40;14.80;99.90
26505;DHT22;19493;48.042;7.584;2022-09-09T05:12:06;14.80;99.90
26505;DHT22;19493;48.042;7.584;2022-09-09T05:14:31;14.80;99.90
26505;DHT22;19493;48.042;7.584;2022-09-09T05:16:57;14.90;99.90
26505;DHT22;19493;48.042;7.584;2022-09-09T05:19:23;15.10;99.90
26505;DHT22;19493;48.042;7.584;2022-09-09T05:21:49;15.20;99.90
26505;DHT22;19493;48.042;7.584;2022-09-09T05:24:15;15.30;99.90
26505;DHT22;19493;48.042;7.584;2022-09-09T05:26:42;15.50;99.90
26505;DHT22;19493;48.042;7.584;2022-09-09T05:29:08;15.60;99.90
26505;DHT22;19493;48.042;7.584;2022-09-09T05:31:34;15.70;99.90
26505;DHT22;19493;48.042;7.584;2022-09-09T05:33:59;15.80;99.90
26505;DHT22;19493;48.042;7.584;2022-09-09T05:36:25;15.90;99.90
26505;DHT22;19493;48.042;7.584;2022-09-09T05:38:51;15.90;99.90
26505;DHT22;19493;48.042;7.584;2022-09-09T05:41:19;16.00;99.90
26505;DHT22;19493;48.042;7.584;2022-09-09T05:43:46;16.00;99.90
26505;DHT22;19493;48.042;7.584;2022-09-09T05:46:21;16.00;99.90
26505;DHT22;19493;48.042;7.584;2022-09-09T05:48:48;16.00;99.90
26505;DHT22;19493;48.042;7.584;2022-09-09T05:51:18;16.10;99.90
26505;DHT22;19493;48.042;7.584;2022-09-09T05:53:45;16.20;99.90
26505;DHT22;19493;48.042;7.584;2022-09-09T05:56:17;16.30;99.90
26505;DHT22;19493;48.042;7.584;2022-09-09T05:58:43;16.30;99.90
26505;DHT22;19493;48.042;7.584;2022-09-09T06:01:11;16.30;99.90
26505;DHT22;19493;48.042;7.584;2022-09-09T06:03:39;16.40;99.90
26505;DHT22;19493;48.042;7.584;2022-09-09T06:06:07;16.40;99.90
26505;DHT22;19493;48.042;7.584;2022-09-09T06:08:34;16.50;99.90
26505;DHT22;19493;48.042;7.584;2022-09-09T06:11:14;16.50;99.90
26505;DHT22;19493;48.042;7.584;2022-09-09T06:13:40;16.50;99.90
26505;DHT22;19493;48.042;7.584;2022-09-09T06:16:11;16.50;99.90
26505;DHT22;19493;48.042;7.584;2022-09-09T06:18:38;16.50;99.90
26505;DHT22;19493;48.042;7.584;2022-09-09T06:21:06;16.50;99.90
26505;DHT22;19493;48.042;7.584;2022-09-09T06:23:35;16.50;99.90
26505;DHT22;19493;48.042;7.584;2022-09-09T06:26:03;16.50;99.90
26505;DHT22;19493;48.042;7.584;2022-09-09T06:28:31;16.60;99.90
26505;DHT22;19493;48.042;7.584;2022-09-09T06:30:58;16.60;99.90
26505;DHT22;19493;48.042;7.584;2022-09-09T06:33:24;16.60;99.90
26505;DHT22;19493;48.042;7.584;2022-09-09T06:35:53;16.80;99.90
26505;DHT22;19493;48.042;7.584;2022-09-09T06:38:19;17.10;99.90
26505;DHT22;19493;48.042;7.584;2022-09-09T06:40:55;17.30;99.90
26505;DHT22;19493;48.042;7.584;2022-09-09T06:43:22;17.40;99.90
26505;DHT22;19493;48.042;7.584;2022-09-09T06:46:03;17.60;99.90
26505;DHT22;19493;48.042;7.584;2022-09-09T06:48:29;17.80;99.90
26505;DHT22;19493;48.042;7.584;2022-09-09T06:51:21;17.90;99.90
26505;DHT22;19493;48.042;7.584;2022-09-09T06:53:50;18.20;99.90
26505;DHT22;19493;48.042;7.584;2022-09-09T06:56:22;18.40;99.90
26505;DHT22;19493;48.042;7.584;2022-09-09T06:58:49;18.60;99.90
26505;DHT22;19493;48.042;7.584;2022-09-09T07:01:17;18.80;99.90
26505;DHT22;19493;48.042;7.584;2022-09-09T07:03:52;18.90;99.90
26505;DHT22;19493;48.042;7.584;2022-09-09T07:06:24;19.00;99.90
26505;DHT22;19493;48.042;7.584;2022-09-09T07:08:51;19.00;99.90
26505;DHT22;19493;48.042;7.584;2022-09-09T07:11:19;19.00;99.90
26505;DHT22;19493;48.042;7.584;2022-09-09T07:13:44;19.10;99.90
26505;DHT22;19493;48.042;7.584;2022-09-09T07:16:12;19.10;99.90
26505;DHT22;19493;48.042;7.584;2022-09-09T07:18:39;19.20;99.90
26505;DHT22;19493;48.042;7.584;2022-09-09T07:21:05;19.10;99.90
26505;DHT22;19493;48.042;7.584;2022-09-09T07:23:32;19.20;99.90
26505;DHT22;19493;48.042;7.584;2022-09-09T07:25:58;19.30;99.90
26505;DHT22;19493;48.042;7.584;2022-09-09T07:28:25;19.40;99.90
26505;DHT22;19493;48.042;7.584;2022-09-09T07:30:59;19.60;99.90
26505;DHT22;19493;48.042;7.584;2022-09-09T07:33:29;19.60;99.90
26505;DHT22;19493;48.042;7.584;2022-09-09T07:36:22;19.70;99.90
26505;DHT22;19493;48.042;7.584;2022-09-09T07:38:50;19.90;99.90
26505;DHT22;19493;48.042;7.584;2022-09-09T07:41:35;19.90;99.90
26505;DHT22;19493;48.042;7.584;2022-09-09T07:44:05;20.00;99.90
26505;DHT22;19493;48.042;7.584;2022-09-09T07:46:31;20.10;99.90
26505;DHT22;19493;48.042;7.584;2022-09-09T07:48:57;20.10;99.90
26505;DHT22;19493;48.042;7.584;2022-09-09T07:51:26;20.20;99.90
26505;DHT22;19493;48.042;7.584;2022-09-09T07:53:54;20.40;99.90
26505;DHT22;19493;48.042;7.584;2022-09-09T07:56:20;20.50;99.90
26505;DHT22;19493;48.042;7.584;2022-09-09T07:58:49;20.60;99.90
26505;DHT22;19493;48.042;7.584;2022-09-09T08:01:21;20.60;99.90
26505;DHT22;19493;48.042;7.584;2022-09-09T08:06:28;20.40;99.90
26505;DHT22;19493;48.042;7.584;2022-09-09T08:08:54;20.30;99.90
26505;DHT22;19493;48.042;7.584;2022-09-09T08:11:21;20.30;99.90
26505;DHT22;19493;48.042;7.584;2022-09-09T08:13:50;20.40;99.90
26505;DHT22;19493;48.042;7.584;2022-09-09T08:16:21;20.50;99.90
26505;DHT22;19493;48.042;7.584;2022-09-09T08:18:48;20.70;99.90
26505;DHT22;19493;48.042;7.584;2022-09-09T08:21:26;20.80;99.90
26505;DHT22;19493;48.042;7.584;2022-09-09T08:23:56;20.90;99.90
26505;DHT22;19493;48.042;7.584;2022-09-09T08:26:24;21.00;99.90
26505;DHT22;19493;48.042;7.584;2022-09-09T08:28:51;20.90;99.90
26505;DHT22;19493;48.042;7.584;2022-09-09T08:31:23;20.90;99.90
26505;DHT22;19493;48.042;7.584;2022-09-09T08:33:49;21.20;99.90
26505;DHT22;19493;48.042;7.584;2022-09-09T08:36:20;21.40;99.90
26505;DHT22;19493;48.042;7.584;2022-09-09T08:38:51;21.70;99.90
26505;DHT22;19493;48.042;7.584;2022-09-09T08:44:23;22.30;99.90
26505;DHT22;19493;48.042;7.584;2022-09-09T08:47:22;22.60;99.90
26505;DHT22;19493;48.042;7.584;2022-09-09T08:55:37;25.00;95.80
26505;DHT22;19493;48.042;7.584;2022-09-09T08:58:19;25.60;89.50
26505;DHT22;19493;48.042;7.584;2022-09-09T09:11:57;22.10;97.50
26505;DHT22;19493;48.042;7.584;2022-09-09T09:14:33;21.90;97.60
26505;DHT22;19493;48.042;7.584;2022-09-09T09:17:19;21.40;99.40
26505;DHT22;19493;48.042;7.584;2022-09-09T09:19:47;21.30;99.90
26505;DHT22;19493;48.042;7.584;2022-09-09T09:22:30;21.30;99.90
26505;DHT22;19493;48.042;7.584;2022-09-09T09:25:12;21.50;99.90
26505;DHT22;19493;48.042;7.584;2022-09-09T09:30:33;22.20;99.60
26505;DHT22;19493;48.042;7.584;2022-09-09T09:35:48;23.70;96.30
26505;DHT22;19493;48.042;7.584;2022-09-09T09:38:20;25.60;88.20
26505;DHT22;19493;48.042;7.584;2022-09-09T09:40:58;25.90;78.00
26505;DHT22;19493;48.042;7.584;2022-09-09T09:43:27;24.90;77.60
26505;DHT22;19493;48.042;7.584;2022-09-09T09:45:53;24.70;78.30
26505;DHT22;19493;48.042;7.584;2022-09-09T09:48:18;25.00;79.80
26505;DHT22;19493;48.042;7.584;2022-09-09T09:50:53;27.30;74.50
26505;DHT22;19493;48.042;7.584;2022-09-09T09:53:25;29.20;63.10
26505;DHT22;19493;48.042;7.584;2022-09-09T09:55:59;28.20;61.80
26505;DHT22;19493;48.042;7.584;2022-09-09T09:58:27;29.20;60.50
26505;DHT22;19493;48.042;7.584;2022-09-09T10:00:57;30.80;55.00
26505;DHT22;19493;48.042;7.584;2022-09-09T10:03:27;30.90;52.10
26505;DHT22;19493;48.042;7.584;2022-09-09T10:08:22;26.90;76.40
26505;DHT22;19493;48.042;7.584;2022-09-09T10:14:04;25.10;86.80
26505;DHT22;19493;48.042;7.584;2022-09-09T10:16:58;26.50;66.20
26505;DHT22;19493;48.042;7.584;2022-09-09T10:19:33;27.80;58.40
26505;DHT22;19493;48.042;7.584;2022-09-09T10:22:25;28.20;55.90
26505;DHT22;19493;48.042;7.584;2022-09-09T10:25:21;28.90;56.30
26505;DHT22;19493;48.042;7.584;2022-09-09T10:30:27;28.70;52.00
26505;DHT22;19493;48.042;7.584;2022-09-09T10:33:10;28.00;49.70
26505;DHT22;19493;48.042;7.584;2022-09-09T10:36:02;26.20;54.10
26505;DHT22;19493;48.042;7.584;2022-09-09T10:38:45;24.30;57.60
26505;DHT22;19493;48.042;7.584;2022-09-09T10:44:22;22.70;67.50
26505;DHT22;19493;48.042;7.584;2022-09-09T10:52:58;21.60;73.80
26505;DHT22;19493;48.042;7.584;2022-09-09T10:55:37;21.40;72.10
26505;DHT22;19493;48.042;7.584;2022-09-09T10:58:05;21.40;71.50
26505;DHT22;19493;48.042;7.584;2022-09-09T11:00:40;21.40;72.20
26505;DHT22;19493;48.042;7.584;2022-09-09T11:03:20;21.70;72.60
26505;DHT22;19493;48.042;7.584;2022-09-09T11:05:55;21.90;73.10
26505;DHT22;19493;48.042;7.584;2022-09-09T11:08:28;22.00;72.30
26505;DHT22;19493;48.042;7.584;2022-09-09T11:11:17;22.80;71.40
26505;DHT22;19493;48.042;7.584;2022-09-09T11:13:59;25.80;66.00
26505;DHT22;19493;48.042;7.584;2022-09-09T11:16:38;27.90;57.20
26505;DHT22;19493;48.042;7.584;2022-09-09T11:19:27;29.50;53.10
26505;DHT22;19493;48.042;7.584;2022-09-09T11:21:55;29.80;50.50
26505;DHT22;19493;48.042;7.584;2022-09-09T11:26:53;26.10;55.40
26505;DHT22;19493;48.042;7.584;2022-09-09T11:29:38;26.80;54.90
26505;DHT22;19493;48.042;7.584;2022-09-09T11:32:26;28.00;52.10
26505;DHT22;19493;48.042;7.584;2022-09-09T11:38:21;30.00;48.20
26505;DHT22;19493;48.042;7.584;2022-09-09T11:40:59;27.60;49.90
26505;DHT22;19493;48.042;7.584;2022-09-09T11:43:55;25.60;53.70
26505;DHT22;19493;48.042;7.584;2022-09-09T11:46:33;24.40;56.80
26505;DHT22;19493;48.042;7.584;2022-09-09T11:49:03;24.00;57.20
26505;DHT22;19493;48.042;7.584;2022-09-09T11:51:32;23.70;57.60
26505;DHT22;19493;48.042;7.584;2022-09-09T11:54:44;23.30;56.80
26505;DHT22;19493;48.042;7.584;2022-09-09T11:56:48;23.40;57.50
26505;DHT22;19493;48.042;7.584;2022-09-09T12:05:05;23.10;59.90
26505;DHT22;19493;48.042;7.584;2022-09-09T12:07:42;23.50;59.80
26505;DHT22;19493;48.042;7.584;2022-09-09T12:10:35;24.00;59.20
26505;DHT22;19493;48.042;7.584;2022-09-09T12:13:19;26.30;55.30
26505;DHT22;19493;48.042;7.584;2022-09-09T12:15:50;27.90;53.60
26505;DHT22;19493;48.042;7.584;2022-09-09T12:18:38;29.60;48.90
26505;DHT22;19493;48.042;7.584;2022-09-09T12:21:35;29.40;48.60
26505;DHT22;19493;48.042;7.584;2022-09-09T12:24:09;30.60;47.50
26505;DHT22;19493;48.042;7.584;2022-09-09T12:26:43;32.60;45.30
26505;DHT22;19493;48.042;7.584;2022-09-09T12:32:11;29.50;44.80
26505;DHT22;19493;48.042;7.584;2022-09-09T12:34:59;26.20;50.50
26505;DHT22;19493;48.042;7.584;2022-09-09T12:37:36;24.30;54.40
26505;DHT22;19493;48.042;7.584;2022-09-09T12:40:05;23.30;56.30
26505;DHT22;19493;48.042;7.584;2022-09-09T12:42:32;23.10;58.50
26505;DHT22;19493;48.042;7.584;2022-09-09T12:45:01;23.40;57.50
26505;DHT22;19493;48.042;7.584;2022-09-09T12:47:40;26.10;54.20
26505;DHT22;19493;48.042;7.584;2022-09-09T12:50:19;28.80;50.00
26505;DHT22;19493;48.042;7.584;2022-09-09T12:52:46;30.10;46.50
26505;DHT22;19493;48.042;7.584;2022-09-09T12:55:18;28.60;47.90
26505;DHT22;19493;48.042;7.584;2022-09-09T12:57:45;26.30;51.50
26505;DHT22;19493;48.042;7.584;2022-09-09T13:00:22;25.10;55.70
26505;DHT22;19493;48.042;7.584;2022-09-09T13:02:53;26.30;55.00
26505;DHT22;19493;48.042;7.584;2022-09-09T13:05:28;27.20;52.70
26505;DHT22;19493;48.042;7.584;2022-09-09T13:08:14;26.10;54.30
26505;DHT22;19493;48.042;7.584;2022-09-09T13:10:50;25.10;56.10
26505;DHT22;19493;48.042;7.584;2022-09-09T13:13:26;24.90;57.10
26505;DHT22;19493;48.042;7.584;2022-09-09T13:15:55;24.20;57.80
26505;DHT22;19493;48.042;7.584;2022-09-09T13:18:35;23.30;57.30
26505;DHT22;19493;48.042;7.584;2022-09-09T13:21:02;22.70;56.70
26505;DHT22;19493;48.042;7.584;2022-09-09T13:23:30;22.70;56.10
26505;DHT22;19493;48.042;7.584;2022-09-09T13:25:59;22.70;55.70
26505;DHT22;19493;48.042;7.584;2022-09-09T13:28:30;22.70;55.70
26505;DHT22;19493;48.042;7.584;2022-09-09T13:31:03;22.80;56.60
26505;DHT22;19493;48.042;7.584;2022-09-09T13:33:34;22.80;57.40
26505;DHT22;19493;48.042;7.584;2022-09-09T13:36:09;24.30;57.30
26505;DHT22;19493;48.042;7.584;2022-09-09T13:38:36;27.00;52.90
26505;DHT22;19493;48.042;7.584;2022-09-09T13:41:04;30.00;47.50
26505;DHT22;19493;48.042;7.584;2022-09-09T13:43:34;31.30;44.20
26505;DHT22;19493;48.042;7.584;2022-09-09T13:46:20;31.50;43.30
26505;DHT22;19493;48.042;7.584;2022-09-09T13:48:58;31.20;43.60
26505;DHT22;19493;48.042;7.584;2022-09-09T13:51:36;31.10;44.00
26505;DHT22;19493;48.042;7.584;2022-09-09T13:54:06;31.00;45.30
26505;DHT22;19493;48.042;7.584;2022-09-09T13:56:34;30.80;45.60
26505;DHT22;19493;48.042;7.584;2022-09-09T13:59:02;29.70;46.70
26505;DHT22;19493;48.042;7.584;2022-09-09T14:01:28;28.60;48.40
26505;DHT22;19493;48.042;7.584;2022-09-09T14:03:54;28.30;49.50
26505;DHT22;19493;48.042;7.584;2022-09-09T14:06:20;26.70;51.80
26505;DHT22;19493;48.042;7.584;2022-09-09T14:08:47;25.60;54.20
26505;DHT22;19493;48.042;7.584;2022-09-09T14:11:13;27.30;53.50
26505;DHT22;19493;48.042;7.584;2022-09-09T14:13:39;29.20;50.00
26505;DHT22;19493;48.042;7.584;2022-09-09T14:16:04;30.90;46.10
26505;DHT22;19493;48.042;7.584;2022-09-09T14:18:30;30.40;44.60
26505;DHT22;19493;48.042;7.584;2022-09-09T14:20:56;28.50;46.60
26505;DHT22;19493;48.042;7.584;2022-09-09T14:23:22;26.60;50.00
26505;DHT22;19493;48.042;7.584;2022-09-09T14:25:48;25.10;53.70
26505;DHT22;19493;48.042;7.584;2022-09-09T14:28:14;24.20;54.80
26505;DHT22;19493;48.042;7.584;2022-09-09T14:30:41;23.60;55.10
26505;DHT22;19493;48.042;7.584;2022-09-09T14:33:09;23.40;55.20
26505;DHT22;19493;48.042;7.584;2022-09-09T14:35:35;23.50;55.10
26505;DHT22;19493;48.042;7.584;2022-09-09T14:38:02;23.40;55.50
26505;DHT22;19493;48.042;7.584;2022-09-09T14:40:28;23.20;56.70
26505;DHT22;19493;48.042;7.584;2022-09-09T14:42:54;22.90;57.80
26505;DHT22;19493;48.042;7.584;2022-09-09T14:45:19;22.80;57.80
26505;DHT22;19493;48.042;7.584;2022-09-09T14:47:46;22.70;58.40
26505;DHT22;19493;48.042;7.584;2022-09-09T14:50:12;22.90;59.00
26505;DHT22;19493;48.042;7.584;2022-09-09T14:52:38;23.20;57.80
26505;DHT22;19493;48.042;7.584;2022-09-09T14:55:04;23.30;57.10
26505;DHT22;19493;48.042;7.584;2022-09-09T14:57:30;23.30;57.20
26505;DHT22;19493;48.042;7.584;2022-09-09T14:59:56;23.40;57.70
26505;DHT22;19493;48.042;7.584;2022-09-09T15:02:22;23.60;57.50
26505;DHT22;19493;48.042;7.584;2022-09-09T15:04:48;24.20;57.30
26505;DHT22;19493;48.042;7.584;2022-09-09T15:07:15;24.50;56.80
26505;DHT22;19493;48.042;7.584;2022-09-09T15:09:41;24.60;56.80
26505;DHT22;19493;48.042;7.584;2022-09-09T15:12:07;24.30;57.60
26505;DHT22;19493;48.042;7.584;2022-09-09T15:14:33;24.10;57.90
26505;DHT22;19493;48.042;7.584;2022-09-09T15:17:00;23.60;59.10
26505;DHT22;19493;48.042;7.584;2022-09-09T15:19:26;23.30;59.90
26505;DHT22;19493;48.042;7.584;2022-09-09T15:21:52;22.90;61.10
26505;DHT22;19493;48.042;7.584;2022-09-09T15:24:17;22.50;62.80
26505;DHT22;19493;48.042;7.584;2022-09-09T15:26:43;22.20;64.20
26505;DHT22;19493;48.042;7.584;2022-09-09T15:29:09;21.80;65.40
26505;DHT22;19493;48.042;7.584;2022-09-09T15:31:34;21.60;66.70
26505;DHT22;19493;48.042;7.584;2022-09-09T15:34:02;21.50;67.20
26505;DHT22;19493;48.042;7.584;2022-09-09T15:36:40;21.40;68.20
26505;DHT22;19493;48.042;7.584;2022-09-09T15:39:12;21.30;68.80
26505;DHT22;19493;48.042;7.584;2022-09-09T15:41:39;21.30;69.40
26505;DHT22;19493;48.042;7.584;2022-09-09T15:44:05;21.30;70.50
26505;DHT22;19493;48.042;7.584;2022-09-09T15:46:42;21.30;71.50
26505;DHT22;19493;48.042;7.584;2022-09-09T15:49:27;21.30;71.80
26505;DHT22;19493;48.042;7.584;2022-09-09T15:51:55;21.30;72.00
26505;DHT22;19493;48.042;7.584;2022-09-09T15:54:22;21.10;73.50
26505;DHT22;19493;48.042;7.584;2022-09-09T15:56:57;20.90;80.40
26505;DHT22;19493;48.042;7.584;2022-09-09T15:59:24;20.40;99.50
26505;DHT22;19493;48.042;7.584;2022-09-09T16:01:49;19.70;99.90
26505;DHT22;19493;48.042;7.584;2022-09-09T16:04:18;19.10;99.90
26505;DHT22;19493;48.042;7.584;2022-09-09T16:06:50;18.60;99.90
26505;DHT22;19493;48.042;7.584;2022-09-09T16:09:15;18.30;99.90
26505;DHT22;19493;48.042;7.584;2022-09-09T16:11:41;18.10;99.90
26505;DHT22;19493;48.042;7.584;2022-09-09T16:14:07;17.90;99.90
26505;DHT22;19493;48.042;7.584;2022-09-09T16:16:34;17.80;99.90
26505;DHT22;19493;48.042;7.584;2022-09-09T16:19:05;17.80;99.90
26505;DHT22;19493;48.042;7.584;2022-09-09T16:21:35;17.80;99.90
26505;DHT22;19493;48.042;7.584;2022-09-09T16:24:03;17.90;99.90
26505;DHT22;19493;48.042;7.584;2022-09-09T16:26:31;18.00;99.90
26505;DHT22;19493;48.042;7.584;2022-09-09T16:28:57;18.20;99.90
26505;DHT22;19493;48.042;7.584;2022-09-09T16:31:24;18.40;99.90
26505;DHT22;19493;48.042;7.584;2022-09-09T16:33:50;18.40;99.90
26505;DHT22;19493;48.042;7.584;2022-09-09T16:36:21;18.40;99.90
26505;DHT22;19493;48.042;7.584;2022-09-09T16:38:47;18.40;99.90
26505;DHT22;19493;48.042;7.584;2022-09-09T16:41:14;18.40;99.90
26505;DHT22;19493;48.042;7.584;2022-09-09T16:43:40;18.40;99.90
26505;DHT22;19493;48.042;7.584;2022-09-09T16:46:14;18.40;99.90
26505;DHT22;19493;48.042;7.584;2022-09-09T16:48:43;18.50;99.90
26505;DHT22;19493;48.042;7.584;2022-09-09T16:51:16;18.50;99.90
26505;DHT22;19493;48.042;7.584;2022-09-09T16:53:42;18.50;99.90
26505;DHT22;19493;48.042;7.584;2022-09-09T16:56:11;18.40;99.90
26505;DHT22;19493;48.042;7.584;2022-09-09T16:58:36;18.30;99.90
26505;DHT22;19493;48.042;7.584;2022-09-09T17:01:04;18.30;99.90
26505;DHT22;19493;48.042;7.584;2022-09-09T17:03:30;18.30;99.90
26505;DHT22;19493;48.042;7.584;2022-09-09T17:05:57;18.20;99.90
26505;DHT22;19493;48.042;7.584;2022-09-09T17:08:23;18.10;99.90
26505;DHT22;19493;48.042;7.584;2022-09-09T17:10:49;18.00;99.90
26505;DHT22;19493;48.042;7.584;2022-09-09T17:13:15;17.90;99.90
26505;DHT22;19493;48.042;7.584;2022-09-09T17:15:46;17.90;99.90
26505;DHT22;19493;48.042;7.584;2022-09-09T17:18:13;17.90;99.90
26505;DHT22;19493;48.042;7.584;2022-09-09T17:20:40;17.90;99.90
26505;DHT22;19493;48.042;7.584;2022-09-09T17:23:06;18.00;99.90
26505;DHT22;19493;48.042;7.584;2022-09-09T17:25:32;18.00;99.90
26505;DHT22;19493;48.042;7.584;2022-09-09T17:27:59;18.10;99.90